Andale, Kansas
Current Conditions -  °F | °C
As of 3:53 PM on Saturday 25 Oct 2014 (Local Time) from KICT Reporting Station
Clear Clear  
Wind Chill: 32°   Ceiling: Unl
Heat Index: 32°   Visibility: 10mi
Dew Point: 12°   Wind: 13mph
Humidity: 29%   Direction: 180°S
Pressure: 30"   Gusts: NA
Location:  37.79°N, 97.63°W
Report Text: KICT 252053Z 18011KT 10SM CLR 32/12 A3000 RMK AO2 SLP146 T03220122 56016
Loading
Personal Weather Stations






























Interactive Weather Map
Tropical Storm Tracking
New forecast layout! Learn more

10-Day Weather Forecast

Advertisements
Track Severe Weather on mobile